Latest METARs, TAFs and NOTAMs for MNMG


---------------------------------------------------------------------------
	(OBSERVATIONS)
MNMG 240800Z 13004KT 9999 FEW024 22/19 Q1010 A2984 NOSIG=
MNMG 240700Z 10006KT 9999 FEW025 24/20 Q1010 A2985 NOSIG=
MNMG 240600Z 11010KT 9999 FEW025 25/20 Q1011 A2987 NOSIG=
---------------------------------------------------------------------------
	(TERMINAL AREA FORECAST)
MNMG 240409Z 2406/2506 11008KT 9999 FEW022 BECMG 2414/2416
    09014G24KT=
---------------------------------------------------------------------------
	(NOTAMS)


MNMG C0023/19 EJERCER PRECAUCION DEBIDO A PRESENCIA DE VIENTOS
    MODERADOS A FUERTES, RACHAS DE 40 A 55 KPH EN LA REGION DEL
    PACIFICO Y LOS LITORALES. 21 JAN 17:52 2019 UNTIL 30 JAN
    23:59 2019. CREATED: 21 JAN 17:55 2019

---------------------------------------------------------------------------